sensor_id;sensor_type;location;lat;lon;timestamp;pressure;altitude;pressure_sealevel;temperature;humidity
53506;BME280;39388;50.936;6.848;2022-10-16T00:00:21;100563.00;;;14.92;89.37
53506;BME280;39388;50.936;6.848;2022-10-16T00:02:51;100556.19;;;14.88;89.48
53506;BME280;39388;50.936;6.848;2022-10-16T00:05:22;100557.88;;;14.89;89.34
53506;BME280;39388;50.936;6.848;2022-10-16T00:07:52;100579.22;;;15.00;89.31
53506;BME280;39388;50.936;6.848;2022-10-16T00:10:22;100575.75;;;15.02;89.09
53506;BME280;39388;50.936;6.848;2022-10-16T00:12:53;100558.63;;;14.94;89.17
53506;BME280;39388;50.936;6.848;2022-10-16T00:15:23;100553.56;;;14.90;89.25
53506;BME280;39388;50.936;6.848;2022-10-16T00:17:54;100560.41;;;14.92;89.26
53506;BME280;39388;50.936;6.848;2022-10-16T00:20:24;100567.38;;;14.92;88.99
53506;BME280;39388;50.936;6.848;2022-10-16T00:22:55;100572.50;;;14.93;88.99
53506;BME280;39388;50.936;6.848;2022-10-16T00:25:25;100585.41;;;14.96;89.18
53506;BME280;39388;50.936;6.848;2022-10-16T00:27:55;100576.81;;;14.93;88.85
53506;BME280;39388;50.936;6.848;2022-10-16T00:30:26;100575.06;;;14.95;88.71
53506;BME280;39388;50.936;6.848;2022-10-16T00:32:57;100553.66;;;14.85;88.73
53506;BME280;39388;50.936;6.848;2022-10-16T00:35:28;100550.88;;;14.93;88.69
53506;BME280;39388;50.936;6.848;2022-10-16T00:37:59;100556.97;;;14.92;88.77
53506;BME280;39388;50.936;6.848;2022-10-16T00:40:29;100552.88;;;14.83;88.65
53506;BME280;39388;50.936;6.848;2022-10-16T00:43:00;100567.31;;;14.93;88.95
53506;BME280;39388;50.936;6.848;2022-10-16T00:45:30;100567.31;;;14.93;88.76
53506;BME280;39388;50.936;6.848;2022-10-16T00:48:00;100555.47;;;14.83;88.71
53506;BME280;39388;50.936;6.848;2022-10-16T00:50:33;100558.97;;;14.80;88.86
53506;BME280;39388;50.936;6.848;2022-10-16T00:53:04;100570.25;;;14.78;89.21
53506;BME280;39388;50.936;6.848;2022-10-16T00:55:35;100557.41;;;14.72;88.89
53506;BME280;39388;50.936;6.848;2022-10-16T00:58:06;100583.19;;;14.79;89.12
53506;BME280;39388;50.936;6.848;2022-10-16T01:00:37;100556.69;;;14.66;89.20
53506;BME280;39388;50.936;6.848;2022-10-16T01:03:26;100575.63;;;14.70;89.07
53506;BME280;39388;50.936;6.848;2022-10-16T01:11:35;100571.50;;;14.61;89.28
53506;BME280;39388;50.936;6.848;2022-10-16T01:14:15;100563.78;;;14.60;89.24
53506;BME280;39388;50.936;6.848;2022-10-16T01:17:00;100567.34;;;14.56;89.24
53506;BME280;39388;50.936;6.848;2022-10-16T01:22:24;100583.66;;;14.59;89.48
53506;BME280;39388;50.936;6.848;2022-10-16T01:24:58;100584.72;;;14.52;89.35
53506;BME280;39388;50.936;6.848;2022-10-16T01:27:32;100572.84;;;14.42;89.37
53506;BME280;39388;50.936;6.848;2022-10-16T01:30:18;100588.03;;;14.59;89.38
53506;BME280;39388;50.936;6.848;2022-10-16T01:32:55;100547.81;;;14.41;89.26
53506;BME280;39388;50.936;6.848;2022-10-16T01:35:36;100573.47;;;14.51;89.68
53506;BME280;39388;50.936;6.848;2022-10-16T01:40:46;100592.44;;;14.55;89.85
53506;BME280;39388;50.936;6.848;2022-10-16T01:43:27;100587.25;;;14.53;89.58
53506;BME280;39388;50.936;6.848;2022-10-16T01:46:00;100596.81;;;14.53;89.58
53506;BME280;39388;50.936;6.848;2022-10-16T01:48:31;100570.25;;;14.42;89.45
53506;BME280;39388;50.936;6.848;2022-10-16T01:51:09;100594.34;;;14.47;89.61
53506;BME280;39388;50.936;6.848;2022-10-16T01:53:43;100590.03;;;14.46;89.62
53506;BME280;39388;50.936;6.848;2022-10-16T01:56:17;100597.00;;;14.44;89.37
53506;BME280;39388;50.936;6.848;2022-10-16T01:58:53;100602.88;;;14.52;89.72
53506;BME280;39388;50.936;6.848;2022-10-16T02:01:26;100586.56;;;14.47;89.82
53506;BME280;39388;50.936;6.848;2022-10-16T02:04:01;100595.13;;;14.50;89.88
53506;BME280;39388;50.936;6.848;2022-10-16T02:06:33;100591.63;;;14.53;89.94
53506;BME280;39388;50.936;6.848;2022-10-16T02:09:03;100602.78;;;14.57;89.68
53506;BME280;39388;50.936;6.848;2022-10-16T02:11:34;100593.38;;;14.51;89.84
53506;BME280;39388;50.936;6.848;2022-10-16T02:14:06;100596.03;;;14.48;89.73
53506;BME280;39388;50.936;6.848;2022-10-16T02:16:39;100593.34;;;14.52;89.79
53506;BME280;39388;50.936;6.848;2022-10-16T02:19:11;100584.84;;;14.46;89.74
53506;BME280;39388;50.936;6.848;2022-10-16T02:21:46;100596.75;;;14.56;89.59
53506;BME280;39388;50.936;6.848;2022-10-16T02:25:12;100580.41;;;14.51;89.69
53506;BME280;39388;50.936;6.848;2022-10-16T02:29:54;100607.81;;;14.63;89.53
53506;BME280;39388;50.936;6.848;2022-10-16T02:32:32;100582.22;;;14.47;89.58
53506;BME280;39388;50.936;6.848;2022-10-16T02:35:03;100605.34;;;14.57;89.64
53506;BME280;39388;50.936;6.848;2022-10-16T02:37:34;100617.41;;;14.59;89.42
53506;BME280;39388;50.936;6.848;2022-10-16T02:40:08;100605.50;;;14.50;89.51
53506;BME280;39388;50.936;6.848;2022-10-16T02:42:39;100605.34;;;14.57;89.44
53506;BME280;39388;50.936;6.848;2022-10-16T02:45:11;100603.59;;;14.57;89.55
53506;BME280;39388;50.936;6.848;2022-10-16T02:47:41;100601.94;;;14.56;89.42
53506;BME280;39388;50.936;6.848;2022-10-16T02:50:12;100611.31;;;14.60;89.57
53506;BME280;39388;50.936;6.848;2022-10-16T02:52:42;100605.31;;;14.58;89.32
53506;BME280;39388;50.936;6.848;2022-10-16T02:55:12;100618.28;;;14.58;89.52
53506;BME280;39388;50.936;6.848;2022-10-16T02:57:43;100594.41;;;14.44;89.46
53506;BME280;39388;50.936;6.848;2022-10-16T03:00:15;100615.69;;;14.60;89.41
53506;BME280;39388;50.936;6.848;2022-10-16T03:02:46;100608.09;;;14.50;89.39
53506;BME280;39388;50.936;6.848;2022-10-16T03:05:17;100590.22;;;14.38;89.47
53506;BME280;39388;50.936;6.848;2022-10-16T03:07:48;100616.69;;;14.52;88.95
53506;BME280;39388;50.936;6.848;2022-10-16T03:10:18;100600.41;;;14.47;89.32
53506;BME280;39388;50.936;6.848;2022-10-16T03:12:49;100573.09;;;14.31;89.24
53506;BME280;39388;50.936;6.848;2022-10-16T03:15:19;100579.00;;;14.36;89.47
53506;BME280;39388;50.936;6.848;2022-10-16T03:17:49;100585.09;;;14.35;89.56
53506;BME280;39388;50.936;6.848;2022-10-16T03:20:20;100595.38;;;14.39;89.30
53506;BME280;39388;50.936;6.848;2022-10-16T03:22:50;100588.53;;;14.35;89.39
53506;BME280;39388;50.936;6.848;2022-10-16T03:25:20;100578.34;;;14.28;89.34
53506;BME280;39388;50.936;6.848;2022-10-16T03:27:51;100607.53;;;14.36;89.37
53506;BME280;39388;50.936;6.848;2022-10-16T03:30:22;100607.75;;;14.27;89.36
53506;BME280;39388;50.936;6.848;2022-10-16T03:32:52;100591.31;;;14.28;89.36
53506;BME280;39388;50.936;6.848;2022-10-16T03:35:24;100585.41;;;14.21;89.28
53506;BME280;39388;50.936;6.848;2022-10-16T03:37:54;100583.69;;;14.20;89.54
53506;BME280;39388;50.936;6.848;2022-10-16T03:40:25;100610.34;;;14.27;89.38
53506;BME280;39388;50.936;6.848;2022-10-16T03:42:55;100601.75;;;14.24;89.38
53506;BME280;39388;50.936;6.848;2022-10-16T03:45:27;100602.56;;;14.27;89.09
53506;BME280;39388;50.936;6.848;2022-10-16T03:47:57;100611.94;;;14.34;89.10
53506;BME280;39388;50.936;6.848;2022-10-16T03:50:28;100606.75;;;14.32;89.25
53506;BME280;39388;50.936;6.848;2022-10-16T03:52:58;100609.41;;;14.29;89.11
53506;BME280;39388;50.936;6.848;2022-10-16T03:55:28;100619.78;;;14.29;89.00
53506;BME280;39388;50.936;6.848;2022-10-16T03:57:59;100628.44;;;14.30;89.15
53506;BME280;39388;50.936;6.848;2022-10-16T04:00:29;100637.88;;;14.34;88.94
53506;BME280;39388;50.936;6.848;2022-10-16T04:03:00;100646.44;;;14.37;89.02
53506;BME280;39388;50.936;6.848;2022-10-16T04:05:30;100633.47;;;14.36;88.72
53506;BME280;39388;50.936;6.848;2022-10-16T04:08:01;100625.81;;;14.31;88.77
53506;BME280;39388;50.936;6.848;2022-10-16T04:10:32;100619.78;;;14.29;88.80
53506;BME280;39388;50.936;6.848;2022-10-16T04:13:02;100625.69;;;14.37;88.27
53506;BME280;39388;50.936;6.848;2022-10-16T04:15:33;100619.72;;;14.32;88.51
53506;BME280;39388;50.936;6.848;2022-10-16T04:18:04;100616.41;;;14.27;88.36
53506;BME280;39388;50.936;6.848;2022-10-16T04:20:34;100636.06;;;14.37;88.29
53506;BME280;39388;50.936;6.848;2022-10-16T04:23:05;100631.78;;;14.35;88.19
53506;BME280;39388;50.936;6.848;2022-10-16T04:25:35;100652.34;;;14.44;88.20
53506;BME280;39388;50.936;6.848;2022-10-16T04:28:06;100649.03;;;14.36;88.25
53506;BME280;39388;50.936;6.848;2022-10-16T04:30:38;100656.72;;;14.42;88.16
53506;BME280;39388;50.936;6.848;2022-10-16T04:33:09;100640.47;;;14.34;88.18
53506;BME280;39388;50.936;6.848;2022-10-16T04:35:40;100643.13;;;14.31;88.44
53506;BME280;39388;50.936;6.848;2022-10-16T04:38:10;100641.34;;;14.33;88.29
53506;BME280;39388;50.936;6.848;2022-10-16T04:40:42;100646.53;;;14.33;88.40
53506;BME280;39388;50.936;6.848;2022-10-16T04:43:12;100662.00;;;14.36;88.51
53506;BME280;39388;50.936;6.848;2022-10-16T04:45:43;100660.31;;;14.35;88.51
53506;BME280;39388;50.936;6.848;2022-10-16T04:48:13;100649.16;;;14.31;88.44
53506;BME280;39388;50.936;6.848;2022-10-16T04:50:44;100653.56;;;14.28;88.41
53506;BME280;39388;50.936;6.848;2022-10-16T04:53:14;100654.50;;;14.23;88.53
53506;BME280;39388;50.936;6.848;2022-10-16T04:55:44;100653.72;;;14.20;88.65
53506;BME280;39388;50.936;6.848;2022-10-16T04:58:15;100688.97;;;14.29;88.90
53506;BME280;39388;50.936;6.848;2022-10-16T05:00:46;100671.03;;;14.19;88.77
53506;BME280;39388;50.936;6.848;2022-10-16T05:03:16;100683.91;;;14.24;88.42
53506;BME280;39388;50.936;6.848;2022-10-16T05:05:47;100682.19;;;14.21;88.80
53506;BME280;39388;50.936;6.848;2022-10-16T05:08:17;100677.81;;;14.25;88.82
53506;BME280;39388;50.936;6.848;2022-10-16T05:10:48;100678.66;;;14.26;88.85
53506;BME280;39388;50.936;6.848;2022-10-16T05:13:18;100670.94;;;14.22;88.77
53506;BME280;39388;50.936;6.848;2022-10-16T05:15:49;100695.84;;;14.31;88.78
53506;BME280;39388;50.936;6.848;2022-10-16T05:18:19;100676.91;;;14.28;88.83
53506;BME280;39388;50.936;6.848;2022-10-16T05:20:50;100699.09;;;14.41;88.70
53506;BME280;39388;50.936;6.848;2022-10-16T05:23:20;100680.22;;;14.34;88.67
53506;BME280;39388;50.936;6.848;2022-10-16T05:25:55;100658.06;;;14.18;88.63
53506;BME280;39388;50.936;6.848;2022-10-16T05:28:29;100675.25;;;14.23;88.88
53506;BME280;39388;50.936;6.848;2022-10-16T05:31:07;100705.38;;;14.31;88.92
53506;BME280;39388;50.936;6.848;2022-10-16T05:33:37;100693.50;;;14.19;88.71
53506;BME280;39388;50.936;6.848;2022-10-16T05:36:09;100725.34;;;14.26;89.13
53506;BME280;39388;50.936;6.848;2022-10-16T05:38:39;100719.31;;;14.25;89.28
53506;BME280;39388;50.936;6.848;2022-10-16T05:41:10;100724.50;;;14.23;89.52
53506;BME280;39388;50.936;6.848;2022-10-16T05:43:40;100718.44;;;14.24;89.52
53506;BME280;39388;50.936;6.848;2022-10-16T05:46:11;100702.94;;;14.21;89.59
53506;BME280;39388;50.936;6.848;2022-10-16T05:48:44;100716.78;;;14.22;89.60
53506;BME280;39388;50.936;6.848;2022-10-16T05:51:15;100702.34;;;14.08;89.67
53506;BME280;39388;50.936;6.848;2022-10-16T05:53:45;100723.81;;;14.15;89.79
53506;BME280;39388;50.936;6.848;2022-10-16T05:56:15;100718.75;;;14.09;89.78
53506;BME280;39388;50.936;6.848;2022-10-16T05:58:46;100723.19;;;14.02;89.81
53506;BME280;39388;50.936;6.848;2022-10-16T06:01:18;100715.56;;;13.96;90.10
53506;BME280;39388;50.936;6.848;2022-10-16T06:03:49;100742.22;;;14.03;90.11
53506;BME280;39388;50.936;6.848;2022-10-16T06:06:22;100734.53;;;13.98;90.19
53506;BME280;39388;50.936;6.848;2022-10-16T06:08:54;100747.50;;;13.98;89.97
53506;BME280;39388;50.936;6.848;2022-10-16T06:11:26;100769.81;;;14.05;90.53
53506;BME280;39388;50.936;6.848;2022-10-16T06:13:59;100758.75;;;13.97;90.26
53506;BME280;39388;50.936;6.848;2022-10-16T06:16:37;100760.41;;;14.00;90.33
53506;BME280;39388;50.936;6.848;2022-10-16T06:19:07;100763.09;;;13.93;90.51
53506;BME280;39388;50.936;6.848;2022-10-16T06:21:39;100757.09;;;13.93;90.72
53506;BME280;39388;50.936;6.848;2022-10-16T06:24:09;100758.59;;;14.05;91.02
53506;BME280;39388;50.936;6.848;2022-10-16T06:26:40;100757.63;;;14.11;90.89
53506;BME280;39388;50.936;6.848;2022-10-16T06:29:10;100747.44;;;14.00;90.79
53506;BME280;39388;50.936;6.848;2022-10-16T06:31:40;100755.03;;;14.09;90.74
53506;BME280;39388;50.936;6.848;2022-10-16T06:34:11;100770.41;;;14.20;90.81
53506;BME280;39388;50.936;6.848;2022-10-16T06:36:41;100761.84;;;14.15;90.82
53506;BME280;39388;50.936;6.848;2022-10-16T06:39:13;100784.06;;;14.28;90.71
53506;BME280;39388;50.936;6.848;2022-10-16T06:41:43;100781.53;;;14.27;90.84
53506;BME280;39388;50.936;6.848;2022-10-16T06:44:14;100786.56;;;14.34;90.70
53506;BME280;39388;50.936;6.848;2022-10-16T06:46:44;100796.78;;;14.42;90.47
53506;BME280;39388;50.936;6.848;2022-10-16T06:49:15;100806.09;;;14.52;90.71
53506;BME280;39388;50.936;6.848;2022-10-16T06:51:51;100802.59;;;14.55;90.52
53506;BME280;39388;50.936;6.848;2022-10-16T06:54:21;100819.78;;;14.61;90.31
53506;BME280;39388;50.936;6.848;2022-10-16T06:56:51;100830.81;;;14.70;90.34
53506;BME280;39388;50.936;6.848;2022-10-16T06:59:24;100829.03;;;14.74;90.50
53506;BME280;39388;50.936;6.848;2022-10-16T07:01:54;100817.84;;;14.70;90.09
53506;BME280;39388;50.936;6.848;2022-10-16T07:04:25;100831.50;;;14.80;90.03
53506;BME280;39388;50.936;6.848;2022-10-16T07:07:00;100828.88;;;14.83;90.17
53506;BME280;39388;50.936;6.848;2022-10-16T07:09:32;100833.78;;;14.96;89.96
53506;BME280;39388;50.936;6.848;2022-10-16T07:12:03;100829.44;;;14.98;89.76
53506;BME280;39388;50.936;6.848;2022-10-16T07:14:34;100833.63;;;15.04;89.69
53506;BME280;39388;50.936;6.848;2022-10-16T07:17:07;100831.03;;;15.04;89.51
53506;BME280;39388;50.936;6.848;2022-10-16T07:19:37;100835.28;;;15.08;89.50
53506;BME280;39388;50.936;6.848;2022-10-16T07:22:08;100852.47;;;15.13;89.48
53506;BME280;39388;50.936;6.848;2022-10-16T07:24:40;100846.56;;;15.07;89.50
53506;BME280;39388;50.936;6.848;2022-10-16T07:27:11;100868.72;;;15.22;89.43
53506;BME280;39388;50.936;6.848;2022-10-16T07:29:41;100881.56;;;15.29;89.49
53506;BME280;39388;50.936;6.848;2022-10-16T07:32:11;100878.13;;;15.29;89.59
53506;BME280;39388;50.936;6.848;2022-10-16T07:34:42;100863.47;;;15.25;89.46
53506;BME280;39388;50.936;6.848;2022-10-16T07:37:12;100859.06;;;15.28;89.31
53506;BME280;39388;50.936;6.848;2022-10-16T07:39:48;100884.81;;;15.39;89.53
53506;BME280;39388;50.936;6.848;2022-10-16T07:42:24;100869.53;;;15.25;89.17
53506;BME280;39388;50.936;6.848;2022-10-16T07:52:13;100777.44;;;14.57;89.21
53506;BME280;39388;50.936;6.848;2022-10-16T07:54:47;100803.19;;;14.69;89.09
53506;BME280;39388;50.936;6.848;2022-10-16T07:57:28;100857.09;;;14.99;89.35
53506;BME280;39388;50.936;6.848;2022-10-16T07:59:58;100897.34;;;15.20;89.40
53506;BME280;39388;50.936;6.848;2022-10-16T08:02:28;100907.75;;;15.20;89.87
53506;BME280;39388;50.936;6.848;2022-10-16T08:04:59;100912.00;;;15.23;89.60
53506;BME280;39388;50.936;6.848;2022-10-16T08:07:29;100904.25;;;15.21;90.01
53506;BME280;39388;50.936;6.848;2022-10-16T08:09:59;100923.66;;;15.45;89.90
53506;BME280;39388;50.936;6.848;2022-10-16T08:12:30;100925.03;;;15.62;88.95
53506;BME280;39388;50.936;6.848;2022-10-16T08:15:00;100906.03;;;15.58;88.76
53506;BME280;39388;50.936;6.848;2022-10-16T08:17:35;100892.25;;;15.55;88.75
53506;BME280;39388;50.936;6.848;2022-10-16T08:20:30;100916.78;;;15.81;88.43
53506;BME280;39388;50.936;6.848;2022-10-16T08:23:15;100901.91;;;15.87;87.92
53506;BME280;39388;50.936;6.848;2022-10-16T08:25:45;100875.81;;;15.92;87.43
53506;BME280;39388;50.936;6.848;2022-10-16T08:28:15;100920.03;;;16.28;86.85
53506;BME280;39388;50.936;6.848;2022-10-16T08:30:46;100891.72;;;16.16;86.49
53506;BME280;39388;50.936;6.848;2022-10-16T08:33:17;100905.50;;;16.19;86.24
53506;BME280;39388;50.936;6.848;2022-10-16T08:35:54;100919.25;;;16.25;86.51
53506;BME280;39388;50.936;6.848;2022-10-16T08:38:24;100953.41;;;16.45;85.91
53506;BME280;39388;50.936;6.848;2022-10-16T08:41:16;100941.41;;;16.40;86.03
53506;BME280;39388;50.936;6.848;2022-10-16T08:49:35;100977.81;;;16.76;84.81
53506;BME280;39388;50.936;6.848;2022-10-16T08:52:11;100977.81;;;16.76;84.26
53506;BME280;39388;50.936;6.848;2022-10-16T08:54:45;100981.00;;;16.86;83.83
53506;BME280;39388;50.936;6.848;2022-10-16T08:57:22;100970.56;;;16.87;83.38
53506;BME280;39388;50.936;6.848;2022-10-16T08:59:55;100978.09;;;16.98;82.63
53506;BME280;39388;50.936;6.848;2022-10-16T09:02:37;100978.72;;;17.06;81.60
53506;BME280;39388;50.936;6.848;2022-10-16T09:05:29;100994.06;;;17.17;81.14
53506;BME280;39388;50.936;6.848;2022-10-16T09:11:32;100992.09;;;17.25;79.45
53506;BME280;39388;50.936;6.848;2022-10-16T09:14:42;101001.41;;;17.34;79.05
53506;BME280;39388;50.936;6.848;2022-10-16T09:22:47;100979.22;;;17.51;78.81
53506;BME280;39388;50.936;6.848;2022-10-16T09:25:20;100988.53;;;17.59;78.13
53506;BME280;39388;50.936;6.848;2022-10-16T09:27:53;100972.91;;;17.58;77.97
53506;BME280;39388;50.936;6.848;2022-10-16T09:30:27;100976.16;;;17.66;77.17
53506;BME280;39388;50.936;6.848;2022-10-16T09:32:59;100990.69;;;17.75;76.73
53506;BME280;39388;50.936;6.848;2022-10-16T09:35:46;100999.09;;;17.85;76.38
53506;BME280;39388;50.936;6.848;2022-10-16T09:38:37;100980.81;;;17.85;76.00
53506;BME280;39388;50.936;6.848;2022-10-16T09:41:21;100990.00;;;17.97;75.58
53506;BME280;39388;50.936;6.848;2022-10-16T09:43:57;100984.78;;;17.97;75.18
53506;BME280;39388;50.936;6.848;2022-10-16T09:46:34;100988.78;;;18.09;74.76
53506;BME280;39388;50.936;6.848;2022-10-16T09:49:22;101003.84;;;18.27;74.10
53506;BME280;39388;50.936;6.848;2022-10-16T09:52:14;100991.53;;;18.31;73.77
53506;BME280;39388;50.936;6.848;2022-10-16T09:54:59;100993.13;;;18.37;73.14
53506;BME280;39388;50.936;6.848;2022-10-16T09:57:30;101007.31;;;18.55;73.04
53506;BME280;39388;50.936;6.848;2022-10-16T10:00:08;101005.31;;;18.63;72.78
53506;BME280;39388;50.936;6.848;2022-10-16T10:02:38;100993.66;;;18.72;72.61
53506;BME280;39388;50.936;6.848;2022-10-16T10:05:21;101008.78;;;18.89;72.04
53506;BME280;39388;50.936;6.848;2022-10-16T10:07:57;101006.75;;;18.97;71.69
53506;BME280;39388;50.936;6.848;2022-10-16T10:10:31;100982.66;;;18.89;71.48
53506;BME280;39388;50.936;6.848;2022-10-16T10:13:01;100984.19;;;18.94;71.28
53506;BME280;39388;50.936;6.848;2022-10-16T10:15:34;101004.50;;;19.11;70.78
53506;BME280;39388;50.936;6.848;2022-10-16T10:18:20;100991.09;;;19.21;70.50
53506;BME280;39388;50.936;6.848;2022-10-16T10:20:59;100983.63;;;19.34;70.14
53506;BME280;39388;50.936;6.848;2022-10-16T10:23:30;100970.94;;;19.48;69.56
53506;BME280;39388;50.936;6.848;2022-10-16T10:26:09;100969.00;;;19.53;68.50
53506;BME280;39388;50.936;6.848;2022-10-16T10:28:49;100992.19;;;19.63;68.44
53506;BME280;39388;50.936;6.848;2022-10-16T10:36:38;100994.88;;;19.61;68.96
53506;BME280;39388;50.936;6.848;2022-10-16T10:39:12;101005.84;;;19.71;68.80
53506;BME280;39388;50.936;6.848;2022-10-16T10:50:47;100998.53;;;20.01;67.25
53506;BME280;39388;50.936;6.848;2022-10-16T11:01:04;100996.69;;;20.26;63.65
53506;BME280;39388;50.936;6.848;2022-10-16T11:03:46;100999.69;;;20.39;63.87
53506;BME280;39388;50.936;6.848;2022-10-16T11:06:32;100997.13;;;20.37;62.99
53506;BME280;39388;50.936;6.848;2022-10-16T11:09:17;100997.94;;;20.39;62.61
53506;BME280;39388;50.936;6.848;2022-10-16T11:11:56;101005.69;;;20.41;63.07
53506;BME280;39388;50.936;6.848;2022-10-16T11:14:36;100999.88;;;20.34;62.74
53506;BME280;39388;50.936;6.848;2022-10-16T11:17:26;100997.41;;;20.29;62.66
53506;BME280;39388;50.936;6.848;2022-10-16T11:22:56;101007.28;;;20.45;62.43
53506;BME280;39388;50.936;6.848;2022-10-16T11:25:30;101013.97;;;20.52;61.95
53506;BME280;39388;50.936;6.848;2022-10-16T11:28:09;101015.53;;;20.56;61.00
53506;BME280;39388;50.936;6.848;2022-10-16T11:30:46;100995.63;;;20.52;59.73
53506;BME280;39388;50.936;6.848;2022-10-16T11:36:23;101000.34;;;20.64;58.52
53506;BME280;39388;50.936;6.848;2022-10-16T11:44:14;101007.94;;;20.71;58.48
53506;BME280;39388;50.936;6.848;2022-10-16T11:49:45;101014.66;;;20.78;58.24
53506;BME280;39388;50.936;6.848;2022-10-16T11:52:25;101021.91;;;20.71;58.03
53506;BME280;39388;50.936;6.848;2022-10-16T11:55:08;101017.97;;;20.61;58.08
53506;BME280;39388;50.936;6.848;2022-10-16T11:57:47;101006.97;;;20.53;58.24
53506;BME280;39388;50.936;6.848;2022-10-16T12:00:27;101012.81;;;20.59;58.10
53506;BME280;39388;50.936;6.848;2022-10-16T12:03:20;100998.72;;;20.62;58.06
53506;BME280;39388;50.936;6.848;2022-10-16T12:05:55;101014.66;;;20.78;58.18
53506;BME280;39388;50.936;6.848;2022-10-16T12:08:29;100998.50;;;20.67;57.97
53506;BME280;39388;50.936;6.848;2022-10-16T12:16:56;101005.50;;;20.45;58.39
53506;BME280;39388;50.936;6.848;2022-10-16T12:19:29;101034.59;;;20.60;58.59
53506;BME280;39388;50.936;6.848;2022-10-16T12:22:00;101039.84;;;20.60;58.75
53506;BME280;39388;50.936;6.848;2022-10-16T12:24:35;101028.44;;;20.61;58.83
53506;BME280;39388;50.936;6.848;2022-10-16T12:27:28;101023.91;;;20.64;59.21
53506;BME280;39388;50.936;6.848;2022-10-16T12:30:00;101024.88;;;20.63;59.88
53506;BME280;39388;50.936;6.848;2022-10-16T12:32:37;101014.44;;;20.62;59.98
53506;BME280;39388;50.936;6.848;2022-10-16T12:35:24;101011.94;;;20.59;59.14
53506;BME280;39388;50.936;6.848;2022-10-16T12:38:05;100995.38;;;20.58;58.73
53506;BME280;39388;50.936;6.848;2022-10-16T12:40:36;100987.44;;;20.60;58.78
53506;BME280;39388;50.936;6.848;2022-10-16T12:48:40;100997.72;;;20.85;57.97
53506;BME280;39388;50.936;6.848;2022-10-16T12:51:24;101009.59;;;20.94;57.94
53506;BME280;39388;50.936;6.848;2022-10-16T12:56:56;101021.66;;;20.98;57.68
53506;BME280;39388;50.936;6.848;2022-10-16T13:21:46;100980.84;;;20.72;56.58
53506;BME280;39388;50.936;6.848;2022-10-16T13:30:18;101004.81;;;20.83;57.30
53506;BME280;39388;50.936;6.848;2022-10-16T13:32:56;101000.22;;;20.88;56.73
53506;BME280;39388;50.936;6.848;2022-10-16T13:35:31;101011.91;;;21.00;57.07
53506;BME280;39388;50.936;6.848;2022-10-16T13:40:36;101022.50;;;21.18;56.84
53506;BME280;39388;50.936;6.848;2022-10-16T13:43:08;101010.97;;;21.22;56.81
53506;BME280;39388;50.936;6.848;2022-10-16T13:45:39;101016.09;;;21.25;56.98
53506;BME280;39388;50.936;6.848;2022-10-16T13:48:09;101016.91;;;21.27;56.68
53506;BME280;39388;50.936;6.848;2022-10-16T13:50:42;101000.19;;;21.09;56.60
53506;BME280;39388;50.936;6.848;2022-10-16T13:53:13;100992.81;;;20.98;56.67
53506;BME280;39388;50.936;6.848;2022-10-16T13:55:44;101008.19;;;21.06;56.96
53506;BME280;39388;50.936;6.848;2022-10-16T13:58:18;101009.69;;;21.12;56.41
53506;BME280;39388;50.936;6.848;2022-10-16T14:00:58;101008.25;;;21.04;56.59
53506;BME280;39388;50.936;6.848;2022-10-16T14:03:29;101015.19;;;21.05;56.97
53506;BME280;39388;50.936;6.848;2022-10-16T14:06:02;101002.44;;;20.98;57.01
53506;BME280;39388;50.936;6.848;2022-10-16T14:08:33;101003.69;;;20.89;57.49
53506;BME280;39388;50.936;6.848;2022-10-16T14:11:03;101020.59;;;20.82;57.67
53506;BME280;39388;50.936;6.848;2022-10-16T14:13:37;101020.97;;;20.72;58.29
53506;BME280;39388;50.936;6.848;2022-10-16T14:16:18;101026.16;;;20.74;58.52
53506;BME280;39388;50.936;6.848;2022-10-16T14:18:58;101022.69;;;20.73;58.71
53506;BME280;39388;50.936;6.848;2022-10-16T14:21:29;101007.25;;;20.67;58.71
53506;BME280;39388;50.936;6.848;2022-10-16T14:24:11;101005.84;;;20.58;58.48
53506;BME280;39388;50.936;6.848;2022-10-16T14:26:44;101002.44;;;20.56;58.95
53506;BME280;39388;50.936;6.848;2022-10-16T14:29:18;100992.38;;;20.47;59.26
53506;BME280;39388;50.936;6.848;2022-10-16T14:31:58;100998.19;;;20.54;59.28
53506;BME280;39388;50.936;6.848;2022-10-16T14:37:22;100982.81;;;20.46;59.01
53506;BME280;39388;50.936;6.848;2022-10-16T14:39:54;100994.72;;;20.53;58.82
53506;BME280;39388;50.936;6.848;2022-10-16T14:42:25;100991.44;;;20.48;59.14
53506;BME280;39388;50.936;6.848;2022-10-16T14:44:56;101005.38;;;20.48;59.16
53506;BME280;39388;50.936;6.848;2022-10-16T14:47:27;101003.63;;;20.49;59.53
53506;BME280;39388;50.936;6.848;2022-10-16T14:49:57;101006.19;;;20.51;59.61
53506;BME280;39388;50.936;6.848;2022-10-16T14:52:29;101012.91;;;20.56;59.80
53506;BME280;39388;50.936;6.848;2022-10-16T14:55:00;101006.88;;;20.54;59.61
53506;BME280;39388;50.936;6.848;2022-10-16T14:57:32;101006.97;;;20.53;60.09
53506;BME280;39388;50.936;6.848;2022-10-16T15:00:18;101005.25;;;20.52;60.46
53506;BME280;39388;50.936;6.848;2022-10-16T15:02:50;101011.41;;;20.51;60.56
53506;BME280;39388;50.936;6.848;2022-10-16T15:05:24;101016.72;;;20.49;60.63
53506;BME280;39388;50.936;6.848;2022-10-16T15:07:56;101008.53;;;20.36;60.85
53506;BME280;39388;50.936;6.848;2022-10-16T15:10:27;101011.94;;;20.38;61.37
53506;BME280;39388;50.936;6.848;2022-10-16T15:12:58;101019.00;;;20.36;61.54
53506;BME280;39388;50.936;6.848;2022-10-16T15:15:34;101021.38;;;20.42;61.56
53506;BME280;39388;50.936;6.848;2022-10-16T15:18:05;101015.53;;;20.36;62.01
53506;BME280;39388;50.936;6.848;2022-10-16T15:20:38;101016.44;;;20.35;62.43
53506;BME280;39388;50.936;6.848;2022-10-16T15:23:15;101021.63;;;20.36;62.49